Terminal Aerodrome Forecast
Issued by NWS

Home | Current Version | Previous Version | Text Only | Print | Product List | Glossary On
Versions: 1 2 3 4 5 6 7 8 9 10 11 12 13 14 15 16 17 18
000
FTUS45 KGJT 101142
TAFEGE
TAF
KEGE 101142Z 1012/1112 10005KT P6SM FEW130 BKN250
     FM101700 25006KT P6SM VCSH BKN100
     FM102200 26008KT 4SM -RASN BR OVC045
     FM102300 25008KT 3SM -SNRA BR OVC035
     FM110100 25008KT 2SM -SN BR OVC035
     FM110400 24012G20KT 1 1/2SM -SN BR OVC025
      AMD LTD TO CLD VIS AND WIND TIL 101300=

USA.gov is the U.S. government's official web portal to all federal, state and local government web resources and services.